Time;durP1;ratioP1;P1;durP2;ratioP2;P2;SDS_P1;SDS_P2;PMS_P1;PMS_P2;Temp;Humidity;BMP_temperature;BMP_pressure;BME280_temperature;BME280_humidity;BME280_pressure;Samples;Min_cycle;Max_cycle;Signal;HPM_P1;HPM_P2
2022/12/30 00:01:09;;;;;;;2.72;0.90;;;17.30;69.30;;;;;;5064384;28;45641;-73
2022/12/30 00:03:36;;;;;;;3.65;1.13;;;17.30;69.40;;;;;;5065201;28;45369;-73
2022/12/30 00:06:04;;;;;;;1.50;0.60;;;17.30;68.90;;;;;;5063918;28;45570;-73
2022/12/30 00:08:47;;;;;;;1.92;0.82;;;17.30;68.70;;;;;;5065008;28;45549;-74
2022/12/30 00:11:15;;;;;;;2.88;0.75;;;17.30;68.50;;;;;;5063673;28;45399;-73
2022/12/30 00:33:22;;;;;;;3.17;0.75;;;17.30;68.50;;;;;;5064030;28;45300;-73
2022/12/30 00:35:51;;;;;;;4.90;1.08;;;17.30;68.70;;;;;;5063866;28;45317;-73
2022/12/30 00:38:18;;;;;;;2.38;0.77;;;17.30;68.90;;;;;;5062416;28;45538;-73
2022/12/30 00:43:27;;;;;;;4.68;0.77;;;17.30;69.10;;;;;;5063729;28;45665;-73
2022/12/30 00:45:54;;;;;;;2.17;1.10;;;17.30;69.00;;;;;;5062302;28;45339;-74
2022/12/30 00:56:36;;;;;;;3.35;1.05;;;17.40;68.80;;;;;;5061612;28;45252;-73
2022/12/30 00:59:03;;;;;;;1.25;0.55;;;17.40;68.50;;;;;;5063511;28;45408;-73
2022/12/30 01:01:30;;;;;;;2.53;0.90;;;17.30;68.50;;;;;;5063681;28;46481;-73
2022/12/30 01:03:57;;;;;;;2.22;0.75;;;17.40;68.60;;;;;;5062753;28;45555;-73
2022/12/30 01:06:24;;;;;;;2.53;0.95;;;17.40;68.50;;;;;;5065064;28;45428;-74
2022/12/30 01:08:51;;;;;;;2.70;0.85;;;17.30;68.40;;;;;;5068954;28;45554;-72
2022/12/30 01:11:18;;;;;;;2.00;0.80;;;17.30;68.20;;;;;;5063641;28;45422;-74
2022/12/30 01:13:46;;;;;;;4.65;0.90;;;17.30;68.40;;;;;;5063812;28;45352;-73
2022/12/30 01:16:16;;;;;;;3.03;0.90;;;17.30;68.20;;;;;;5044093;28;45448;-73
2022/12/30 01:18:44;;;;;;;7.30;1.23;;;17.30;68.20;;;;;;5061240;28;45599;-73
2022/12/30 01:21:11;;;;;;;2.08;0.75;;;17.30;68.20;;;;;;5060629;28;47308;-73
2022/12/30 01:23:38;;;;;;;3.15;1.00;;;17.30;68.20;;;;;;5064129;28;45410;-73
2022/12/30 01:26:07;;;;;;;3.38;0.98;;;17.30;68.30;;;;;;5063101;28;45328;-73
2022/12/30 01:28:39;;;;;;;4.45;0.98;;;17.30;69.20;;;;;;5063268;28;45555;-72
2022/12/30 01:31:09;;;;;;;2.55;1.00;;;17.30;68.10;;;;;;5066542;28;46283;-73
2022/12/30 01:33:36;;;;;;;3.42;1.23;;;17.40;68.10;;;;;;5059215;28;45296;-73
2022/12/30 01:36:04;;;;;;;4.72;1.15;;;17.30;68.00;;;;;;5064059;28;45450;-73
2022/12/30 01:38:32;;;;;;;5.63;1.15;;;17.40;68.20;;;;;;5064081;28;45403;-73
2022/12/30 01:41:00;;;;;;;2.05;0.85;;;17.30;68.20;;;;;;5064420;28;46865;-73
2022/12/30 01:43:45;;;;;;;2.00;0.82;;;17.30;67.90;;;;;;5063946;28;45337;-73
2022/12/30 01:46:20;;;;;;;2.40;1.00;;;17.30;67.60;;;;;;5061456;28;45333;-73
2022/12/30 01:48:48;;;;;;;2.35;0.70;;;17.40;67.60;;;;;;5063931;28;45693;-73
2022/12/30 01:51:18;;;;;;;3.42;1.27;;;17.40;67.60;;;;;;5063960;28;46298;-73
2022/12/30 01:53:49;;;;;;;5.63;0.98;;;17.30;67.50;;;;;;5064335;28;45182;-73
2022/12/30 01:56:19;;;;;;;2.72;0.90;;;17.30;67.50;;;;;;5061849;28;45404;-73
2022/12/30 01:58:50;;;;;;;3.80;1.02;;;17.30;67.50;;;;;;5064041;28;45214;-73
2022/12/30 02:01:19;;;;;;;2.58;1.13;;;17.30;67.40;;;;;;5058663;28;46047;-73
2022/12/30 02:03:49;;;;;;;3.25;0.88;;;17.30;67.40;;;;;;5063938;28;45940;-73
2022/12/30 02:06:19;;;;;;;3.30;1.10;;;17.30;67.40;;;;;;5064273;28;45281;-73
2022/12/30 02:08:46;;;;;;;6.05;1.55;;;17.30;67.30;;;;;;5064078;28;45406;-73
2022/12/30 02:11:13;;;;;;;4.45;1.10;;;17.30;67.30;;;;;;5063394;28;46585;-73
2022/12/30 02:13:39;;;;;;;4.22;1.30;;;17.30;67.50;;;;;;5063175;28;45389;-73
2022/12/30 02:16:28;;;;;;;3.60;0.95;;;17.30;67.40;;;;;;5061395;28;45327;-73
2022/12/30 02:19:19;;;;;;;3.42;0.73;;;17.30;67.30;;;;;;5058569;28;45320;-73
2022/12/30 02:22:18;;;;;;;4.10;0.93;;;17.40;67.30;;;;;;5062863;28;46422;-72
2022/12/30 02:25:09;;;;;;;6.70;1.00;;;17.30;67.10;;;;;;5062667;28;45353;-73
2022/12/30 02:28:04;;;;;;;4.72;1.40;;;17.30;67.10;;;;;;5061695;28;45318;-73
2022/12/30 02:30:41;;;;;;;2.03;0.90;;;17.30;67.10;;;;;;5054842;28;45646;-73
2022/12/30 02:33:19;;;;;;;3.20;1.00;;;17.30;66.80;;;;;;5066105;28;45494;-73
2022/12/30 02:35:55;;;;;;;5.85;0.95;;;17.40;66.60;;;;;;5062218;28;45226;-73
2022/12/30 02:38:34;;;;;;;2.35;0.90;;;17.40;66.60;;;;;;5061120;28;45360;-73
2022/12/30 02:46:51;;;;;;;5.03;1.00;;;17.30;67.60;;;;;;5062971;28;45445;-73
2022/12/30 02:49:21;;;;;;;2.38;1.00;;;17.40;67.10;;;;;;5065573;28;45206;-73
2022/12/30 02:54:34;;;;;;;3.92;1.00;;;17.40;66.80;;;;;;5066067;28;45865;-73
2022/12/30 02:57:01;;;;;;;5.07;1.25;;;17.40;67.00;;;;;;5066396;28;45348;-73
2022/12/30 03:05:34;;;;;;;2.40;0.90;;;17.40;66.80;;;;;;5065806;28;45530;-73
2022/12/30 03:08:13;;;;;;;3.03;1.13;;;17.40;67.00;;;;;;5066320;28;45291;-73
2022/12/30 03:13:36;;;;;;;4.53;1.15;;;17.40;66.50;;;;;;5068178;28;45386;-72
2022/12/30 03:16:08;;;;;;;3.92;1.08;;;17.40;66.30;;;;;;5066409;28;46602;-73
2022/12/30 03:18:35;;;;;;;2.28;0.82;;;17.40;66.30;;;;;;5067145;28;45260;-73
2022/12/30 03:21:16;;;;;;;2.90;1.10;;;17.40;66.50;;;;;;5066809;28;45264;-73
2022/12/30 03:29:20;;;;;;;3.67;1.00;;;17.40;66.30;;;;;;5059910;28;45257;-72
2022/12/30 03:31:47;;;;;;;2.90;1.00;;;17.40;66.40;;;;;;5065714;28;45357;-73
2022/12/30 03:34:14;;;;;;;2.03;0.63;;;17.40;65.80;;;;;;5063145;28;45789;-73
2022/12/30 03:36:46;;;;;;;3.38;1.20;;;17.40;65.90;;;;;;5065527;28;45416;-73
2022/12/30 03:39:17;;;;;;;2.50;0.95;;;17.40;65.70;;;;;;5066607;28;45269;-73
2022/12/30 03:41:48;;;;;;;1.90;0.70;;;17.40;65.60;;;;;;5065479;28;45457;-73
2022/12/30 03:44:17;;;;;;;2.88;0.95;;;17.30;65.40;;;;;;5065640;28;45486;-73
2022/12/30 03:46:46;;;;;;;4.90;1.08;;;17.40;65.40;;;;;;5065106;28;45539;-72
2022/12/30 03:49:13;;;;;;;2.60;1.08;;;17.30;65.30;;;;;;5067657;28;45229;-73
2022/12/30 03:51:40;;;;;;;1.92;0.75;;;17.30;65.40;;;;;;5066386;28;45253;-73
2022/12/30 03:54:08;;;;;;;4.72;1.05;;;17.30;65.20;;;;;;5066154;28;45338;-73
2022/12/30 03:56:35;;;;;;;1.83;0.70;;;17.30;65.10;;;;;;5064902;28;46293;-73
2022/12/30 03:59:01;;;;;;;2.70;0.88;;;17.30;65.20;;;;;;5064408;28;45447;-73
2022/12/30 04:01:28;;;;;;;4.43;1.05;;;17.30;65.20;;;;;;5066597;27;45226;-73
2022/12/30 04:03:55;;;;;;;5.55;1.00;;;17.30;65.10;;;;;;5066039;28;45419;-73
2022/12/30 04:06:22;;;;;;;3.22;0.77;;;17.30;65.40;;;;;;5076796;28;46305;-73
2022/12/30 04:08:49;;;;;;;1.70;0.70;;;17.30;65.80;;;;;;5086135;27;45369;-73
2022/12/30 04:11:17;;;;;;;5.22;1.15;;;17.40;66.00;;;;;;5086389;27;45310;-74
2022/12/30 04:13:44;;;;;;;4.55;1.20;;;17.40;65.90;;;;;;5086638;27;45201;-73
2022/12/30 04:16:10;;;;;;;3.30;1.00;;;17.40;66.00;;;;;;5085714;28;48577;-73
2022/12/30 04:18:38;;;;;;;3.08;1.00;;;17.40;65.70;;;;;;5080953;27;45259;-73
2022/12/30 04:21:05;;;;;;;2.08;0.75;;;17.30;65.40;;;;;;5065933;28;45455;-73
2022/12/30 04:23:32;;;;;;;4.25;1.35;;;17.30;65.20;;;;;;5066001;28;45537;-73
2022/12/30 04:25:59;;;;;;;2.53;1.05;;;17.30;65.10;;;;;;5065241;28;48193;-73
2022/12/30 04:28:28;;;;;;;3.95;1.02;;;17.30;65.30;;;;;;5065844;28;45332;-74
2022/12/30 04:30:54;;;;;;;2.83;0.95;;;17.30;65.00;;;;;;5065565;28;45290;-73
2022/12/30 04:33:21;;;;;;;5.47;1.35;;;17.30;65.00;;;;;;5065951;28;45285;-73
2022/12/30 04:35:48;;;;;;;4.03;1.20;;;17.30;64.90;;;;;;5065730;28;46236;-73
2022/12/30 04:38:15;;;;;;;3.38;1.13;;;17.30;64.90;;;;;;5084031;28;45287;-73
2022/12/30 04:40:41;;;;;;;2.85;1.08;;;17.20;64.30;;;;;;5085364;27;45196;-73
2022/12/30 04:43:08;;;;;;;3.78;1.20;;;17.20;64.20;;;;;;5086259;27;45552;-73
2022/12/30 04:45:37;;;;;;;3.28;1.15;;;17.20;64.40;;;;;;5080984;27;45197;-74
2022/12/30 04:48:04;;;;;;;5.28;1.15;;;17.20;64.30;;;;;;5065442;28;45238;-73
2022/12/30 04:50:31;;;;;;;5.60;1.30;;;17.20;64.20;;;;;;5065540;28;45368;-74
2022/12/30 04:52:58;;;;;;;2.72;0.95;;;17.20;63.80;;;;;;5065531;28;45592;-73
2022/12/30 04:55:24;;;;;;;6.03;1.17;;;17.20;64.20;;;;;;5065898;28;45297;-74
2022/12/30 04:57:51;;;;;;;2.30;0.93;;;17.20;63.80;;;;;;5065637;28;45350;-71
2022/12/30 05:00:18;;;;;;;3.03;1.10;;;17.20;63.40;;;;;;5064665;28;45577;-73
2022/12/30 05:02:46;;;;;;;4.00;1.23;;;17.20;64.30;;;;;;5057392;28;45395;-73
2022/12/30 05:05:13;;;;;;;4.57;1.17;;;17.20;63.10;;;;;;5043325;28;46592;-74
2022/12/30 05:07:40;;;;;;;3.13;0.88;;;17.20;63.00;;;;;;5055234;28;45312;-73
2022/12/30 05:10:08;;;;;;;6.47;1.40;;;17.20;62.70;;;;;;5065455;28;45329;-73
2022/12/30 05:12:34;;;;;;;4.22;1.05;;;17.20;62.40;;;;;;5065675;28;45222;-74
2022/12/30 05:15:01;;;;;;;4.57;1.35;;;17.20;62.40;;;;;;5065521;28;45276;-74
2022/12/30 05:17:28;;;;;;;3.00;0.90;;;17.20;63.20;;;;;;5077364;28;45319;-74
2022/12/30 05:19:56;;;;;;;2.88;0.93;;;17.10;62.90;;;;;;5085568;27;45261;-74
2022/12/30 05:22:23;;;;;;;3.15;1.02;;;17.10;63.00;;;;;;5085436;27;45438;-74
2022/12/30 05:27:34;;;;;;;4.25;1.13;;;17.10;63.10;;;;;;5084566;28;45321;-73
2022/12/30 05:30:01;;;;;;;4.03;1.45;;;17.10;62.80;;;;;;5073143;27;45246;-74
2022/12/30 05:32:28;;;;;;;5.43;1.17;;;17.10;62.40;;;;;;5065297;28;45409;-74
2022/12/30 05:34:56;;;;;;;4.00;1.30;;;17.10;62.20;;;;;;5064782;28;46598;-74
2022/12/30 05:37:23;;;;;;;4.55;0.90;;;17.10;61.80;;;;;;5051576;28;45348;-73
2022/12/30 05:39:49;;;;;;;3.95;1.00;;;17.10;61.40;;;;;;5044596;28;45316;-74
2022/12/30 05:42:16;;;;;;;3.95;1.30;;;17.10;61.80;;;;;;5044894;28;45563;-74
2022/12/30 05:44:43;;;;;;;4.93;1.10;;;17.10;61.60;;;;;;5044383;28;48321;-74
2022/12/30 05:47:10;;;;;;;4.85;1.20;;;17.10;61.10;;;;;;5044474;28;45331;-74
2022/12/30 05:49:37;;;;;;;3.90;1.20;;;17.10;61.20;;;;;;5044654;28;45355;-74
2022/12/30 05:52:05;;;;;;;4.05;1.30;;;17.00;61.00;;;;;;5044691;28;45314;-73
2022/12/30 05:54:31;;;;;;;3.33;1.08;;;17.10;60.90;;;;;;5044346;28;46385;-74
2022/12/30 05:56:58;;;;;;;3.30;1.20;;;17.00;60.80;;;;;;5044514;28;45375;-74
2022/12/30 05:59:25;;;;;;;3.47;1.05;;;17.00;61.10;;;;;;5043706;28;45329;-73
2022/12/30 06:02:03;;;;;;;2.78;0.90;;;17.00;61.20;;;;;;5044492;28;45298;-73
2022/12/30 06:04:30;;;;;;;2.38;0.80;;;17.10;61.50;;;;;;5044027;28;46583;-74
2022/12/30 06:06:57;;;;;;;4.05;1.27;;;17.10;61.40;;;;;;5044194;28;45307;-74
2022/12/30 06:09:25;;;;;;;5.22;1.27;;;17.10;61.50;;;;;;5044062;28;45297;-75
2022/12/30 06:11:52;;;;;;;4.10;1.08;;;17.10;61.40;;;;;;5044629;28;45447;-74
2022/12/30 06:14:20;;;;;;;4.55;1.45;;;17.10;61.20;;;;;;5044248;28;45238;-74
2022/12/30 06:16:47;;;;;;;2.88;1.10;;;17.10;61.00;;;;;;5047122;28;45834;-74
2022/12/30 06:19:14;;;;;;;4.57;1.15;;;17.10;61.20;;;;;;5050942;28;45546;-74
2022/12/30 06:21:41;;;;;;;4.75;0.70;;;17.00;60.50;;;;;;5051160;28;45266;-74
2022/12/30 06:24:10;;;;;;;5.70;1.27;;;17.00;60.30;;;;;;5049991;28;47679;-74
2022/12/30 06:26:38;;;;;;;2.50;0.90;;;17.00;60.10;;;;;;5050883;28;45365;-74
2022/12/30 06:29:05;;;;;;;5.38;1.27;;;17.00;59.90;;;;;;5050966;28;45426;-74
2022/12/30 06:31:33;;;;;;;3.28;1.13;;;17.00;59.60;;;;;;5051176;28;45303;-74
2022/12/30 06:33:59;;;;;;;3.70;1.15;;;17.00;59.50;;;;;;5050500;28;47986;-73
2022/12/30 06:36:26;;;;;;;3.92;0.90;;;17.00;59.60;;;;;;5050345;28;45334;-74
2022/12/30 06:38:53;;;;;;;3.80;1.15;;;17.00;60.10;;;;;;5050124;28;45321;-74
2022/12/30 06:41:20;;;;;;;3.85;1.00;;;17.00;59.30;;;;;;5050772;28;45574;-74
2022/12/30 06:43:48;;;;;;;3.60;1.05;;;17.00;58.90;;;;;;5063451;28;45464;-75
2022/12/30 06:46:14;;;;;;;5.32;1.00;;;17.00;59.20;;;;;;5091951;27;45337;-72
2022/12/30 06:48:41;;;;;;;3.10;0.90;;;17.00;60.00;;;;;;5073325;27;45226;-74
2022/12/30 06:51:08;;;;;;;3.65;1.20;;;17.00;59.80;;;;;;5070436;28;45589;-74
2022/12/30 06:53:35;;;;;;;3.40;1.15;;;17.00;59.70;;;;;;5070265;27;48294;-74
2022/12/30 06:56:02;;;;;;;4.50;1.02;;;17.00;59.90;;;;;;5070548;28;45263;-73
2022/12/30 06:58:29;;;;;;;4.88;1.42;;;17.00;59.70;;;;;;5070773;28;45414;-74
2022/12/30 07:00:57;;;;;;;4.22;1.02;;;17.00;59.60;;;;;;5070123;28;45408;-74
2022/12/30 07:03:24;;;;;;;3.97;1.25;;;17.00;59.60;;;;;;5070788;28;45332;-74
2022/12/30 07:05:51;;;;;;;4.63;1.13;;;17.00;59.60;;;;;;5070407;28;45351;-73
2022/12/30 07:08:18;;;;;;;2.58;0.90;;;17.00;59.70;;;;;;5070932;28;45321;-74
2022/12/30 07:10:44;;;;;;;2.92;1.08;;;17.00;59.60;;;;;;5070713;28;45367;-73
2022/12/30 07:13:13;;;;;;;4.90;1.25;;;17.00;59.30;;;;;;5070061;28;47755;-74
2022/12/30 07:15:40;;;;;;;3.83;1.00;;;17.00;59.50;;;;;;5066587;28;45372;-74
2022/12/30 07:18:08;;;;;;;2.03;0.70;;;17.10;59.60;;;;;;5082567;28;45443;-74
2022/12/30 07:20:36;;;;;;;3.50;1.00;;;17.10;59.80;;;;;;5089588;27;45328;-73
2022/12/30 07:23:02;;;;;;;3.05;0.73;;;17.10;60.00;;;;;;5089627;27;48423;-74
2022/12/30 07:25:29;;;;;;;2.33;0.80;;;17.10;61.20;;;;;;5089175;27;45877;-73
2022/12/30 07:28:00;;;;;;;2.42;0.70;;;17.00;60.00;;;;;;5087574;27;45304;-74
2022/12/30 07:30:27;;;;;;;2.55;0.63;;;17.10;60.10;;;;;;5086065;27;45173;-73
2022/12/30 07:32:54;;;;;;;3.17;1.13;;;17.10;60.30;;;;;;5086654;27;46045;-74
2022/12/30 07:35:23;;;;;;;1.83;0.85;;;17.10;60.30;;;;;;5082339;27;45260;-74
2022/12/30 07:37:50;;;;;;;1.35;0.80;;;17.10;60.70;;;;;;5068707;28;45469;-71
2022/12/30 07:40:17;;;;;;;1.92;0.80;;;17.10;60.90;;;;;;5069881;27;45393;-73
2022/12/30 07:42:44;;;;;;;4.53;0.80;;;17.10;61.00;;;;;;5056760;28;46683;-73
2022/12/30 07:45:12;;;;;;;2.42;1.00;;;17.10;62.00;;;;;;5073885;28;45284;-74
2022/12/30 07:47:42;;;;;;;1.85;0.70;;;17.20;61.00;;;;;;5065472;28;45337;-73
2022/12/30 07:50:10;;;;;;;2.65;0.80;;;17.20;61.20;;;;;;5065743;28;45222;-74
2022/12/30 07:52:39;;;;;;;3.20;0.90;;;17.20;61.10;;;;;;5070607;28;47336;-74
2022/12/30 07:55:07;;;;;;;1.70;0.60;;;17.10;61.10;;;;;;5074283;28;45262;-74
2022/12/30 07:57:34;;;;;;;3.00;0.85;;;17.20;61.10;;;;;;5074448;27;45395;-73
2022/12/30 08:00:01;;;;;;;1.65;0.70;;;17.20;61.10;;;;;;5073030;28;45526;-73
2022/12/30 08:02:27;;;;;;;4.32;0.90;;;17.20;61.10;;;;;;5069371;28;46564;-73
2022/12/30 08:04:54;;;;;;;1.70;0.50;;;17.20;61.10;;;;;;5077318;28;45623;-74
2022/12/30 08:07:21;;;;;;;2.10;0.70;;;17.10;61.10;;;;;;5082173;27;45454;-73
2022/12/30 08:09:50;;;;;;;2.90;0.75;;;17.10;61.50;;;;;;5072248;28;45508;-73
2022/12/30 08:12:17;;;;;;;2.25;0.98;;;17.10;61.70;;;;;;5081486;27;46401;-74
2022/12/30 08:14:44;;;;;;;1.95;0.70;;;17.10;61.70;;;;;;5065294;28;45320;-74
2022/12/30 08:17:10;;;;;;;0.65;0.40;;;17.10;61.90;;;;;;5063383;28;45410;-73
2022/12/30 08:19:38;;;;;;;2.47;0.60;;;17.10;62.00;;;;;;5044656;28;45575;-73
2022/12/30 08:22:05;;;;;;;1.98;0.70;;;17.10;62.20;;;;;;5062134;28;47607;-74
2022/12/30 08:24:32;;;;;;;2.33;0.90;;;17.00;62.00;;;;;;5064523;28;45703;-74
2022/12/30 08:27:00;;;;;;;3.13;0.55;;;17.10;62.10;;;;;;5064501;28;45412;-74
2022/12/30 08:29:27;;;;;;;1.55;0.57;;;17.10;62.20;;;;;;5064462;28;45286;-74
2022/12/30 08:31:57;;;;;;;2.55;0.60;;;17.10;63.50;;;;;;5064975;28;48484;-73
2022/12/30 08:34:24;;;;;;;1.65;0.77;;;17.10;62.20;;;;;;5065019;28;45317;-74
2022/12/30 08:36:52;;;;;;;3.28;0.80;;;17.10;62.30;;;;;;5065559;28;45278;-73
2022/12/30 08:39:19;;;;;;;1.90;0.68;;;17.10;62.30;;;;;;5061601;28;45431;-74
2022/12/30 08:41:47;;;;;;;0.95;0.43;;;17.20;62.30;;;;;;5064179;28;47487;-74
2022/12/30 08:44:15;;;;;;;1.35;0.70;;;17.20;62.20;;;;;;5052460;28;45289;-73
2022/12/30 08:46:42;;;;;;;1.30;0.68;;;17.20;62.30;;;;;;5061569;28;45427;-74
2022/12/30 08:49:11;;;;;;;1.35;0.60;;;17.20;62.20;;;;;;5064330;28;45469;-74
2022/12/30 08:51:38;;;;;;;3.25;0.90;;;17.20;62.10;;;;;;5064554;28;45356;-74
2022/12/30 08:54:06;;;;;;;1.73;0.60;;;17.20;61.90;;;;;;5062308;28;45361;-74
2022/12/30 08:56:35;;;;;;;3.10;0.65;;;17.20;61.70;;;;;;5077167;28;45434;-74
2022/12/30 08:59:02;;;;;;;1.33;0.63;;;17.20;61.50;;;;;;5073668;27;45346;-75
2022/12/30 09:01:33;;;;;;;1.42;0.63;;;17.10;61.30;;;;;;5064215;28;47160;-75
2022/12/30 09:04:00;;;;;;;1.60;0.63;;;17.10;61.10;;;;;;5072844;28;45310;-74
2022/12/30 09:06:30;;;;;;;2.28;0.60;;;17.10;60.90;;;;;;5044300;28;45317;-74
2022/12/30 09:08:58;;;;;;;2.38;0.90;;;17.10;60.90;;;;;;5062849;28;45392;-74
2022/12/30 09:11:28;;;;;;;2.72;0.93;;;17.10;61.20;;;;;;5063931;28;45428;-74
2022/12/30 09:13:55;;;;;;;2.63;0.80;;;17.10;61.00;;;;;;5068870;28;45394;-74
2022/12/30 09:16:22;;;;;;;2.05;0.57;;;17.10;62.20;;;;;;5076663;28;45370;-74
2022/12/30 09:18:51;;;;;;;1.10;0.55;;;17.20;61.40;;;;;;5059869;28;45364;-74
2022/12/30 09:21:19;;;;;;;0.93;0.50;;;17.10;61.50;;;;;;5076085;28;47967;-74
2022/12/30 09:23:46;;;;;;;0.40;0.40;;;17.20;61.70;;;;;;5057860;28;45355;-74
2022/12/30 09:26:16;;;;;;;3.42;0.85;;;17.20;61.80;;;;;;5066868;27;45371;-74
2022/12/30 09:28:43;;;;;;;0.93;0.70;;;17.20;61.90;;;;;;5075683;27;45722;-74
2022/12/30 09:31:10;;;;;;;2.40;0.77;;;17.20;62.00;;;;;;5074177;27;46321;-73
2022/12/30 09:33:36;;;;;;;3.55;0.73;;;17.20;62.10;;;;;;5059641;28;45541;-73
2022/12/30 09:36:05;;;;;;;1.23;0.50;;;17.20;62.10;;;;;;5057673;28;45339;-74
2022/12/30 09:38:32;;;;;;;1.88;0.80;;;17.20;62.20;;;;;;5055931;28;45382;-74
2022/12/30 09:41:06;;;;;;;1.92;0.60;;;17.20;62.10;;;;;;5058323;28;47289;-73
2022/12/30 09:43:40;;;;;;;0.60;0.45;;;17.20;61.80;;;;;;5069573;28;45475;-73
2022/12/30 09:46:25;;;;;;;1.55;0.73;;;17.20;61.80;;;;;;5081634;28;45312;-74
2022/12/30 09:48:59;;;;;;;1.85;0.30;;;17.20;62.20;;;;;;5063325;27;45494;-74
2022/12/30 09:51:31;;;;;;;1.63;0.57;;;17.20;62.40;;;;;;5057946;28;45446;-74
2022/12/30 09:54:04;;;;;;;1.77;0.45;;;17.20;62.70;;;;;;5043412;28;45249;-74
2022/12/30 09:56:34;;;;;;;1.05;0.60;;;17.10;62.70;;;;;;5063440;28;45337;-74
2022/12/30 09:59:06;;;;;;;1.77;0.60;;;17.10;62.90;;;;;;5064972;28;45478;-74
2022/12/30 10:01:37;;;;;;;3.35;0.70;;;17.20;62.90;;;;;;5063191;28;46222;-74
2022/12/30 10:04:04;;;;;;;1.50;0.70;;;17.10;63.00;;;;;;5073391;28;45353;-74
2022/12/30 10:06:39;;;;;;;0.98;0.40;;;17.10;63.40;;;;;;5047526;28;45641;-74
2022/12/30 10:09:47;;;;;;;3.17;0.68;;;17.20;64.00;;;;;;5043921;28;45510;-74
2022/12/30 10:12:29;;;;;;;2.30;0.65;;;17.20;63.60;;;;;;5043229;28;47703;-74
2022/12/30 10:15:08;;;;;;;2.42;0.75;;;17.20;63.50;;;;;;5040726;28;45356;-74
2022/12/30 10:17:53;;;;;;;1.83;0.63;;;17.20;63.40;;;;;;5050537;28;45387;-74
2022/12/30 10:20:35;;;;;;;1.23;0.57;;;17.30;63.40;;;;;;5052828;28;45393;-74
2022/12/30 10:23:14;;;;;;;1.85;0.60;;;17.30;63.30;;;;;;5058473;28;47939;-75
2022/12/30 10:25:50;;;;;;;2.25;0.60;;;17.30;63.40;;;;;;5067568;28;45508;-74
2022/12/30 10:28:28;;;;;;;1.40;0.60;;;17.30;63.50;;;;;;5072807;27;45394;-73
2022/12/30 10:30:54;;;;;;;1.02;0.52;;;17.30;63.50;;;;;;5070891;28;45400;-74
2022/12/30 10:33:23;;;;;;;0.93;0.40;;;17.30;63.60;;;;;;5073976;28;47689;-74
2022/12/30 10:35:54;;;;;;;1.65;0.60;;;17.20;63.60;;;;;;5071467;27;45275;-73
2022/12/30 10:38:27;;;;;;;1.17;0.50;;;17.30;63.70;;;;;;5071453;28;45273;-73
2022/12/30 10:41:04;;;;;;;1.45;0.70;;;17.20;63.80;;;;;;5067987;27;45403;-74
2022/12/30 10:43:45;;;;;;;1.25;0.47;;;17.20;63.80;;;;;;5040239;28;46494;-74
2022/12/30 10:46:27;;;;;;;1.42;0.70;;;17.30;63.90;;;;;;5043302;28;45372;-74
2022/12/30 10:49:15;;;;;;;2.15;0.63;;;17.20;63.80;;;;;;5066978;28;45541;-74
2022/12/30 10:51:42;;;;;;;2.80;0.77;;;17.30;63.80;;;;;;5061222;28;45529;-74
2022/12/30 10:54:11;;;;;;;2.55;0.63;;;17.30;63.70;;;;;;5056401;27;46587;-73
2022/12/30 10:56:49;;;;;;;1.02;0.50;;;17.30;63.80;;;;;;5043769;28;45298;-74
2022/12/30 10:59:18;;;;;;;2.78;0.80;;;17.30;63.80;;;;;;5042879;28;45361;-73
2022/12/30 11:01:47;;;;;;;2.65;0.50;;;17.30;63.90;;;;;;5050077;28;45372;-74
2022/12/30 11:04:33;;;;;;;2.20;0.68;;;17.30;63.60;;;;;;5065732;28;47930;-74
2022/12/30 11:07:02;;;;;;;1.40;0.50;;;17.40;63.80;;;;;;5067598;28;45338;-74
2022/12/30 11:09:31;;;;;;;1.38;0.60;;;17.30;63.80;;;;;;5067187;28;45425;-73
2022/12/30 11:14:46;;;;;;;1.08;0.57;;;17.40;63.80;;;;;;5064429;28;45751;-74
2022/12/30 11:17:23;;;;;;;1.50;0.50;;;17.40;63.80;;;;;;5067647;28;45324;-74
2022/12/30 11:19:52;;;;;;;1.00;0.47;;;17.40;63.80;;;;;;5066900;28;45361;-74
2022/12/30 11:22:19;;;;;;;1.50;0.50;;;17.40;63.70;;;;;;5067493;28;45138;-74
2022/12/30 11:24:59;;;;;;;0.95;0.55;;;17.40;63.80;;;;;;5066245;28;45267;-73
2022/12/30 11:27:36;;;;;;;0.90;0.47;;;17.40;63.80;;;;;;5051523;28;45399;-73
2022/12/30 11:30:04;;;;;;;2.13;0.95;;;17.40;63.60;;;;;;5064804;28;45481;-73
2022/12/30 11:32:31;;;;;;;1.75;0.52;;;17.40;63.70;;;;;;5074610;28;45715;-73
2022/12/30 11:35:00;;;;;;;0.85;0.40;;;17.40;63.70;;;;;;5080520;28;46816;-73
2022/12/30 11:37:33;;;;;;;1.48;0.50;;;17.40;63.60;;;;;;5075640;27;45488;-74
2022/12/30 11:40:25;;;;;;;1.23;0.35;;;17.40;64.70;;;;;;5066612;28;45580;-73
2022/12/30 11:43:13;;;;;;;3.45;0.60;;;17.40;63.70;;;;;;5065912;28;45620;-74
2022/12/30 11:45:49;;;;;;;0.68;0.50;;;17.40;63.70;;;;;;5065916;28;47383;-74
2022/12/30 11:48:24;;;;;;;0.95;0.30;;;17.40;63.80;;;;;;5065260;28;45289;-73
2022/12/30 11:50:54;;;;;;;1.95;0.50;;;17.40;63.60;;;;;;5069956;28;45258;-75
2022/12/30 11:53:22;;;;;;;1.35;0.55;;;17.40;63.50;;;;;;5074418;27;45359;-74
2022/12/30 11:55:52;;;;;;;0.90;0.43;;;17.40;63.50;;;;;;5063667;28;45592;-74
2022/12/30 11:58:21;;;;;;;0.63;0.30;;;17.40;63.50;;;;;;5072834;28;45364;-73
2022/12/30 12:00:58;;;;;;;0.80;0.32;;;17.40;63.40;;;;;;5078146;28;45444;-72
2022/12/30 12:03:27;;;;;;;0.63;0.47;;;17.40;63.50;;;;;;5077690;27;45448;-74
2022/12/30 12:06:05;;;;;;;1.88;0.70;;;17.40;63.50;;;;;;5085099;27;45430;-74
2022/12/30 12:08:37;;;;;;;1.05;0.50;;;17.50;64.60;;;;;;5050547;27;45839;-74
2022/12/30 12:11:10;;;;;;;1.65;0.45;;;17.40;63.50;;;;;;5063928;28;45373;-74
2022/12/30 12:13:47;;;;;;;0.35;0.30;;;17.50;63.60;;;;;;5074168;27;45277;-73
2022/12/30 12:16:18;;;;;;;0.88;0.38;;;17.50;63.60;;;;;;5077217;27;46307;-74
2022/12/30 12:18:50;;;;;;;0.95;0.40;;;17.40;63.50;;;;;;5072559;27;45343;-73
2022/12/30 12:21:24;;;;;;;0.93;0.40;;;17.40;63.60;;;;;;5076049;27;45260;-74
2022/12/30 12:24:01;;;;;;;0.77;0.32;;;17.40;63.60;;;;;;5063340;28;45290;-74
2022/12/30 12:26:31;;;;;;;1.20;0.68;;;17.40;63.60;;;;;;5051985;28;46296;-73
2022/12/30 12:29:00;;;;;;;1.77;0.55;;;17.40;63.60;;;;;;5075214;27;45356;-74
2022/12/30 12:31:42;;;;;;;1.45;0.30;;;17.40;64.60;;;;;;5081787;27;45421;-74
2022/12/30 12:34:21;;;;;;;1.15;0.40;;;17.40;63.50;;;;;;5064988;28;45413;-74
2022/12/30 12:36:58;;;;;;;2.22;0.50;;;17.40;63.50;;;;;;5065047;28;45328;-73
2022/12/30 12:39:46;;;;;;;0.90;0.57;;;17.40;63.60;;;;;;5062924;28;45265;-75
2022/12/30 12:42:16;;;;;;;1.35;0.50;;;17.40;63.50;;;;;;5075085;28;45460;-74
2022/12/30 12:45:15;;;;;;;2.05;0.30;;;17.40;63.40;;;;;;5065029;28;45529;-74
2022/12/30 12:47:52;;;;;;;1.30;0.40;;;17.40;63.40;;;;;;5050868;28;47786;-73
2022/12/30 12:50:30;;;;;;;2.60;0.60;;;17.40;63.30;;;;;;5064758;28;45430;-74
2022/12/30 12:53:10;;;;;;;1.75;0.50;;;17.50;63.40;;;;;;5044133;28;45477;-74
2022/12/30 12:56:00;;;;;;;0.70;0.30;;;17.50;63.40;;;;;;5046036;28;45543;-74
2022/12/30 12:58:36;;;;;;;2.40;0.63;;;17.40;63.30;;;;;;5062116;28;46525;-74
2022/12/30 13:01:13;;;;;;;0.90;0.32;;;17.50;63.50;;;;;;5067727;28;46171;-74
2022/12/30 13:03:58;;;;;;;1.92;0.50;;;17.40;63.50;;;;;;5072837;28;45490;-74
2022/12/30 13:06:32;;;;;;;2.25;0.55;;;17.40;63.70;;;;;;5079262;27;45328;-74
2022/12/30 13:09:23;;;;;;;1.15;0.30;;;17.40;63.70;;;;;;5071201;28;45262;-70
2022/12/30 13:11:55;;;;;;;5.90;0.90;;;17.40;63.30;;;;;;5065600;28;45434;-71
2022/12/30 13:14:33;;;;;;;1.52;0.60;;;17.40;63.30;;;;;;5075099;28;45329;-70
2022/12/30 13:17:05;;;;;;;9.05;0.80;;;17.30;62.80;;;;;;5072066;28;45380;-71
2022/12/30 13:19:35;;;;;;;5.47;0.95;;;17.40;63.80;;;;;;5062765;28;47233;-72
2022/12/30 13:22:06;;;;;;;3.50;1.13;;;17.30;63.50;;;;;;5063760;28;45403;-70
2022/12/30 13:24:39;;;;;;;1.23;0.60;;;17.30;63.30;;;;;;5073646;27;45323;-71
2022/12/30 13:27:08;;;;;;;2.03;0.60;;;17.20;63.00;;;;;;5071692;27;45368;-71
2022/12/30 13:29:38;;;;;;;2.00;0.82;;;17.20;63.20;;;;;;5068354;27;47346;-70
2022/12/30 13:32:16;;;;;;;5.28;0.80;;;17.20;63.10;;;;;;5064957;27;45269;-72
2022/12/30 13:34:56;;;;;;;2.60;0.90;;;17.30;63.40;;;;;;5063805;28;45335;-74
2022/12/30 13:37:29;;;;;;;3.78;0.65;;;17.40;65.00;;;;;;5065931;28;45640;-72
2022/12/30 13:40:07;;;;;;;8.95;1.02;;;17.50;66.80;;;;;;5064947;28;47967;-74
2022/12/30 13:42:59;;;;;;;10.82;0.95;;;17.50;66.80;;;;;;5068553;28;45452;-79
2022/12/30 13:45:28;;;;;;;4.57;0.73;;;17.60;66.10;;;;;;5063968;28;45138;-78
2022/12/30 13:48:13;;;;;;;4.68;0.85;;;17.50;65.00;;;;;;5069964;28;45190;-79
2022/12/30 13:50:42;;;;;;;2.28;0.68;;;17.50;64.90;;;;;;5066391;28;47030;-79
2022/12/30 13:53:38;;;;;;;5.05;0.80;;;17.50;64.90;;;;;;5066273;28;45265;-78
2022/12/30 13:59:31;;;;;;;2.63;0.80;;;17.50;64.90;;;;;;5063372;28;45245;-79
2022/12/30 14:02:35;;;;;;;2.58;0.60;;;17.50;64.90;;;;;;5066219;28;46246;-79
2022/12/30 14:05:04;;;;;;;1.65;0.60;;;17.50;65.00;;;;;;5066371;28;45098;-79
2022/12/30 14:07:49;;;;;;;1.90;0.70;;;17.50;65.00;;;;;;5066544;28;45296;-79
2022/12/30 14:10:54;;;;;;;3.35;0.80;;;17.50;65.00;;;;;;5066407;28;45335;-79